Time;durP1;ratioP1;P1;durP2;ratioP2;P2;SDS_P1;SDS_P2;PMS_P1;PMS_P2;Temp;Humidity;BMP_temperature;BMP_pressure;BME280_temperature;BME280_humidity;BME280_pressure;Samples;Min_cycle;Max_cycle;Signal;HPM_P1;HPM_P2
2022/05/26 00:01:03;;;;;;;24.20;3.63;;;13.10;78.50;;;;;;4110276;28;20050;-87
2022/05/26 00:03:04;;;;;;;19.80;3.42;;;13.10;78.30;;;;;;4142552;28;20096;-87
2022/05/26 00:05:06;;;;;;;25.55;4.68;;;13.10;78.30;;;;;;4121350;28;20030;-87
2022/05/26 00:07:07;;;;;;;20.83;3.40;;;13.10;78.30;;;;;;4126423;28;20033;-87
2022/05/26 00:09:08;;;;;;;24.88;3.30;;;13.10;78.40;;;;;;4145744;28;20030;-87
2022/05/26 00:11:13;;;;;;;29.83;3.97;;;13.10;78.40;;;;;;4126389;28;20037;-86
2022/05/26 00:13:14;;;;;;;22.73;3.60;;;13.10;78.40;;;;;;4144633;28;20030;-87
2022/05/26 00:15:21;;;;;;;21.23;2.80;;;13.10;78.10;;;;;;4108741;28;20125;-87
2022/05/26 00:17:22;;;;;;;24.27;3.92;;;13.10;78.20;;;;;;4129635;28;20022;-87
2022/05/26 00:19:24;;;;;;;24.45;3.42;;;13.10;78.10;;;;;;4125115;28;20105;-88
2022/05/26 00:21:27;;;;;;;21.50;2.85;;;13.00;77.90;;;;;;4127931;28;20101;-86
2022/05/26 00:23:28;;;;;;;27.92;4.03;;;13.10;77.90;;;;;;4128225;28;20037;-86
2022/05/26 00:25:33;;;;;;;29.75;3.53;;;13.10;78.00;;;;;;4109740;28;20068;-85
2022/05/26 00:27:33;;;;;;;26.08;3.70;;;13.10;77.90;;;;;;4127596;28;20045;-85
2022/05/26 00:29:38;;;;;;;25.02;3.58;;;13.10;77.80;;;;;;4112890;28;20062;-86
2022/05/26 00:31:39;;;;;;;20.00;3.60;;;13.20;77.80;;;;;;4128158;28;20453;-85
2022/05/26 00:33:40;;;;;;;23.38;3.50;;;13.20;77.80;;;;;;4130315;28;20034;-86
2022/05/26 00:35:43;;;;;;;21.67;3.95;;;13.20;77.50;;;;;;4140159;28;20046;-86
2022/05/26 00:37:45;;;;;;;28.15;3.63;;;13.10;77.60;;;;;;4112908;28;20550;-87
2022/05/26 00:39:45;;;;;;;28.92;4.70;;;13.10;77.60;;;;;;4124267;28;20141;-86
2022/05/26 00:41:55;;;;;;;25.40;3.28;;;13.10;77.40;;;;;;4139329;28;20301;-86
2022/05/26 00:44:27;;;;;;;30.00;4.07;;;13.10;77.40;;;;;;4128463;28;20022;-87
2022/05/26 00:46:53;;;;;;;29.45;3.72;;;13.10;77.10;;;;;;4143290;28;20034;-85
2022/05/26 00:48:58;;;;;;;29.85;3.90;;;13.10;77.20;;;;;;4142451;28;20030;-86
2022/05/26 00:51:03;;;;;;;24.98;4.10;;;13.10;77.10;;;;;;4133478;28;20018;-89
2022/05/26 00:53:12;;;;;;;28.08;3.38;;;13.10;77.00;;;;;;4125088;28;20031;-85
2022/05/26 00:55:27;;;;;;;21.95;4.20;;;13.10;77.20;;;;;;4122596;28;20531;-86
2022/05/26 00:57:34;;;;;;;24.55;3.47;;;13.10;77.10;;;;;;4127204;28;20050;-86
2022/05/26 00:59:54;;;;;;;25.67;3.67;;;13.10;77.20;;;;;;4137223;28;20113;-86
2022/05/26 01:01:58;;;;;;;20.88;3.15;;;13.10;77.20;;;;;;4131564;28;20019;-87
2022/05/26 01:04:05;;;;;;;30.50;3.53;;;13.10;77.10;;;;;;4140505;28;20101;-86
2022/05/26 01:06:17;;;;;;;20.95;3.75;;;13.10;77.20;;;;;;4123172;28;20042;-86
2022/05/26 01:08:27;;;;;;;29.50;3.72;;;13.10;77.30;;;;;;4142263;28;20076;-85
2022/05/26 01:10:28;;;;;;;24.13;4.40;;;13.10;77.20;;;;;;4127128;28;20035;-85
2022/05/26 01:12:31;;;;;;;;;;;13.00;77.00;;;;;;4127431;28;20149;-85
2022/05/26 01:14:38;;;;;;;34.03;4.00;;;13.10;77.30;;;;;;4128612;28;20009;-85
2022/05/26 01:16:39;;;;;;;24.00;3.25;;;13.00;76.50;;;;;;4151813;28;20030;-87
2022/05/26 01:19:12;;;;;;;20.25;3.10;;;13.20;76.60;;;;;;4160251;28;20084;-86
2022/05/26 01:21:25;;;;;;;25.92;3.25;;;13.10;76.60;;;;;;4126397;28;20456;-85
2022/05/26 01:23:53;;;;;;;24.33;4.15;;;13.10;76.50;;;;;;4123511;28;20026;-85
2022/05/26 01:26:16;;;;;;;27.55;3.85;;;13.10;76.70;;;;;;4122727;28;20082;-85
2022/05/26 01:28:41;;;;;;;29.48;3.92;;;13.10;76.70;;;;;;4126976;28;20023;-86
2022/05/26 01:31:16;;;;;;;26.88;3.42;;;13.10;76.40;;;;;;4142913;28;20461;-86
2022/05/26 01:33:35;;;;;;;28.08;3.65;;;13.00;76.30;;;;;;4122573;28;20038;-85
2022/05/26 01:36:00;;;;;;;26.05;3.45;;;13.10;76.30;;;;;;4136644;28;20034;-85
2022/05/26 01:38:06;;;;;;;20.48;3.50;;;13.00;76.00;;;;;;4126153;28;20027;-87
2022/05/26 01:40:36;;;;;;;24.90;3.97;;;13.10;76.10;;;;;;4127882;28;21203;-86
2022/05/26 01:43:02;;;;;;;23.17;2.67;;;13.00;76.00;;;;;;4124482;28;20035;-86
2022/05/26 01:45:49;;;;;;;18.08;3.15;;;13.00;76.10;;;;;;4139018;28;20038;-87
2022/05/26 01:48:22;;;;;;;20.02;3.20;;;13.00;75.90;;;;;;4127468;28;20042;-86
2022/05/26 01:50:36;;;;;;;19.65;3.30;;;13.00;75.70;;;;;;4083085;29;20744;-86
2022/05/26 01:52:52;;;;;;;35.40;4.75;;;13.00;75.50;;;;;;4066114;29;20165;-87
2022/05/26 01:55:13;;;;;;;22.40;3.58;;;13.00;75.40;;;;;;4098024;28;20215;-87
2022/05/26 01:57:20;;;;;;;26.55;3.42;;;13.00;75.50;;;;;;4095915;28;20038;-86
2022/05/26 01:59:33;;;;;;;20.75;3.13;;;13.00;75.30;;;;;;4072732;29;20481;-86
2022/05/26 02:01:38;;;;;;;22.17;3.33;;;13.00;75.40;;;;;;4081862;28;20585;-87
2022/05/26 02:04:34;;;;;;;25.85;3.15;;;13.00;75.30;;;;;;4095315;28;20027;-86
2022/05/26 02:06:56;;;;;;;29.58;3.63;;;13.00;75.40;;;;;;4078403;28;20040;-86
2022/05/26 02:10:00;;;;;;;30.52;3.20;;;12.90;75.20;;;;;;4075141;28;20059;-86
2022/05/26 02:12:39;;;;;;;24.83;3.17;;;12.90;75.10;;;;;;4063556;29;20500;-85
2022/05/26 02:14:46;;;;;;;23.67;3.28;;;12.90;75.10;;;;;;4079358;29;20059;-85
2022/05/26 02:16:58;;;;;;;28.10;3.20;;;12.80;75.00;;;;;;4080893;29;20031;-85
2022/05/26 02:19:07;;;;;;;28.52;3.70;;;12.90;75.10;;;;;;4060256;29;20024;-86
2022/05/26 02:21:15;;;;;;;33.97;3.88;;;12.80;75.00;;;;;;4086532;29;20032;-86
2022/05/26 02:23:37;;;;;;;20.25;3.65;;;12.80;75.20;;;;;;4078623;29;20027;-86
2022/05/26 02:25:38;;;;;;;27.25;3.80;;;12.80;75.20;;;;;;4098509;28;20031;-87
2022/05/26 02:27:39;;;;;;;17.90;2.83;;;12.80;75.10;;;;;;4123299;28;20042;-86
2022/05/26 02:29:51;;;;;;;21.73;3.22;;;12.80;75.10;;;;;;4126935;28;20034;-87
2022/05/26 02:31:54;;;;;;;25.98;3.17;;;12.70;75.00;;;;;;4141038;28;20127;-85
2022/05/26 02:34:01;;;;;;;22.67;4.28;;;12.70;75.10;;;;;;4147245;28;20029;-86
2022/05/26 02:36:01;;;;;;;23.48;2.83;;;12.70;75.00;;;;;;4128990;28;20572;-88
2022/05/26 02:38:06;;;;;;;25.33;3.85;;;12.70;75.00;;;;;;4111491;28;20040;-87
2022/05/26 02:40:08;;;;;;;17.85;3.47;;;12.80;75.10;;;;;;4129835;28;20513;-85
2022/05/26 02:42:10;;;;;;;21.27;2.97;;;12.70;75.00;;;;;;4124721;28;20030;-87
2022/05/26 02:44:12;;;;;;;34.13;3.28;;;12.70;75.00;;;;;;4133069;28;20033;-86
2022/05/26 02:46:50;;;;;;;30.75;3.55;;;12.70;75.10;;;;;;4143670;28;20034;-86
2022/05/26 02:48:50;;;;;;;19.90;2.88;;;12.60;75.00;;;;;;4145529;28;20053;-87
2022/05/26 02:51:34;;;;;;;19.88;3.22;;;12.50;74.90;;;;;;4125854;28;20079;-86
2022/05/26 02:53:48;;;;;;;16.30;2.25;;;12.60;75.00;;;;;;4129541;28;20054;-87
2022/05/26 02:56:23;;;;;;;24.30;2.63;;;12.60;74.90;;;;;;4129265;28;20046;-86
2022/05/26 02:58:42;;;;;;;23.60;2.80;;;12.60;74.90;;;;;;4132243;28;20117;-86
2022/05/26 03:01:04;;;;;;;21.95;2.83;;;12.60;75.00;;;;;;4127087;28;20314;-86
2022/05/26 03:03:18;;;;;;;20.83;2.78;;;12.50;75.00;;;;;;4115946;28;20038;-86
2022/05/26 03:05:30;;;;;;;;;;;12.50;75.00;;;;;;4129547;28;21262;-86
2022/05/26 03:07:33;;;;;;;23.83;3.22;;;12.50;75.70;;;;;;4130013;28;19960;-86
2022/05/26 03:09:37;;;;;;;20.77;2.72;;;12.50;74.80;;;;;;4108595;28;20051;-86
2022/05/26 03:11:55;;;;;;;17.98;2.92;;;12.40;75.00;;;;;;4121908;28;20037;-88
2022/05/26 03:13:56;;;;;;;16.15;2.55;;;12.50;75.20;;;;;;4138939;28;20038;-86
2022/05/26 03:15:57;;;;;;;14.63;2.20;;;12.40;75.10;;;;;;4113360;28;20054;-86
2022/05/26 03:18:01;;;;;;;24.02;3.20;;;12.40;75.10;;;;;;4146618;28;20022;-86
2022/05/26 03:20:06;;;;;;;25.15;2.80;;;12.40;75.20;;;;;;4127454;28;20027;-86
2022/05/26 03:22:07;;;;;;;35.65;3.40;;;12.30;75.20;;;;;;4143957;28;20512;-86
2022/05/26 03:24:10;;;;;;;19.48;2.50;;;12.40;75.30;;;;;;4119407;28;20057;-86
2022/05/26 03:26:10;;;;;;;21.40;2.50;;;12.40;75.50;;;;;;4127140;28;20133;-87
2022/05/26 03:28:11;;;;;;;16.48;2.58;;;12.30;75.50;;;;;;4130635;28;20697;-86
2022/05/26 03:30:12;;;;;;;20.17;2.55;;;12.30;75.50;;;;;;4141324;28;20090;-87
2022/05/26 03:32:13;;;;;;;24.05;2.80;;;12.30;75.40;;;;;;4141561;28;20555;-87
2022/05/26 03:41:20;;;;;;;22.70;2.83;;;12.30;75.40;;;;;;4139108;28;20052;-86
2022/05/26 03:43:28;;;;;;;16.88;2.55;;;12.30;75.40;;;;;;4128683;28;20674;-87
2022/05/26 03:45:30;;;;;;;21.30;2.50;;;12.30;75.50;;;;;;4123775;28;20030;-86
2022/05/26 03:47:33;;;;;;;22.52;2.78;;;12.40;75.70;;;;;;4129582;28;20591;-86
2022/05/26 03:49:34;;;;;;;22.85;3.78;;;12.30;75.70;;;;;;4125752;28;20030;-86
2022/05/26 03:51:35;;;;;;;14.65;2.70;;;12.20;75.80;;;;;;4138525;28;20089;-86
2022/05/26 03:53:36;;;;;;;18.85;2.30;;;12.30;75.70;;;;;;4128119;28;20085;-86
2022/05/26 03:55:37;;;;;;;29.60;3.17;;;12.30;75.80;;;;;;4125105;28;20026;-87
2022/05/26 03:57:38;;;;;;;18.52;2.35;;;12.30;75.80;;;;;;4144777;28;20018;-86
2022/05/26 03:59:42;;;;;;;16.70;3.03;;;12.30;75.70;;;;;;4129289;28;20034;-88
2022/05/26 04:01:43;;;;;;;26.48;2.90;;;12.30;75.80;;;;;;4111252;28;20023;-87
2022/05/26 04:03:43;;;;;;;19.33;2.08;;;12.30;75.80;;;;;;4139393;28;20044;-87
2022/05/26 04:05:44;;;;;;;14.88;2.38;;;12.40;75.90;;;;;;4125347;28;20073;-86
2022/05/26 04:07:45;;;;;;;19.50;2.38;;;12.20;75.90;;;;;;4111200;28;20463;-87
2022/05/26 04:09:46;;;;;;;19.83;2.92;;;12.30;75.80;;;;;;4127073;28;20030;-85
2022/05/26 04:11:46;;;;;;;17.30;2.38;;;12.40;75.70;;;;;;4111012;28;20054;-84
2022/05/26 04:13:47;;;;;;;17.10;2.63;;;12.40;75.60;;;;;;4125872;28;20084;-88
2022/05/26 04:15:48;;;;;;;21.25;2.83;;;12.40;75.40;;;;;;4110013;28;20503;-88
2022/05/26 04:17:49;;;;;;;19.75;2.75;;;12.40;75.20;;;;;;4140813;28;20030;-86
2022/05/26 04:19:51;;;;;;;20.45;2.33;;;12.50;75.20;;;;;;4128107;28;20029;-87
2022/05/26 04:24:14;;;;;;;23.85;3.13;;;12.40;74.40;;;;;;4124738;28;20045;-87
2022/05/26 04:26:15;;;;;;;16.35;2.15;;;12.60;74.40;;;;;;4145568;28;20022;-87
2022/05/26 04:28:15;;;;;;;14.00;2.00;;;12.50;74.00;;;;;;4127573;28;20042;-86
2022/05/26 04:30:16;;;;;;;14.45;2.00;;;12.50;73.80;;;;;;4126901;28;20517;-87
2022/05/26 04:32:17;;;;;;;23.50;2.20;;;12.60;73.50;;;;;;4146496;28;20080;-86
2022/05/26 04:34:18;;;;;;;13.75;1.88;;;12.70;73.60;;;;;;4112735;28;20042;-87
2022/05/26 04:36:19;;;;;;;18.50;2.70;;;12.70;73.30;;;;;;4141291;28;20419;-86
2022/05/26 04:38:20;;;;;;;16.20;2.03;;;12.70;73.30;;;;;;4127335;28;20027;-87
2022/05/26 04:40:21;;;;;;;18.13;2.65;;;12.70;73.10;;;;;;4129062;28;20074;-88
2022/05/26 04:42:25;;;;;;;13.68;2.35;;;12.70;72.90;;;;;;4144450;28;20026;-87
2022/05/26 04:44:33;;;;;;;15.30;2.58;;;12.70;72.60;;;;;;4128386;28;20670;-86
2022/05/26 04:46:43;;;;;;;13.15;2.08;;;12.80;72.50;;;;;;4110071;28;20030;-86
2022/05/26 04:48:44;;;;;;;16.40;2.13;;;12.80;72.20;;;;;;4127623;28;20023;-88
2022/05/26 04:50:45;;;;;;;15.00;1.95;;;12.90;72.00;;;;;;4124335;28;20053;-86
2022/05/26 04:52:45;;;;;;;15.77;1.75;;;12.90;71.80;;;;;;4127946;28;20525;-87
2022/05/26 04:54:48;;;;;;;13.25;2.35;;;12.90;71.60;;;;;;4113086;28;20423;-87
2022/05/26 04:56:49;;;;;;;15.88;2.15;;;13.00;71.40;;;;;;4148672;28;20022;-86
2022/05/26 04:58:54;;;;;;;12.50;2.20;;;13.00;71.00;;;;;;4111214;28;20027;-86
2022/05/26 05:00:54;;;;;;;16.65;1.90;;;13.10;71.00;;;;;;4138612;28;20438;-86
2022/05/26 05:02:55;;;;;;;18.17;2.35;;;13.10;70.70;;;;;;4127222;28;20022;-88
2022/05/26 05:04:58;;;;;;;17.40;2.30;;;13.10;70.50;;;;;;4129985;28;20117;-87
2022/05/26 05:06:59;;;;;;;19.67;2.50;;;13.10;69.90;;;;;;4132133;28;20030;-85
2022/05/26 05:09:00;;;;;;;19.10;2.03;;;13.20;70.00;;;;;;4122160;28;20038;-86
2022/05/26 05:11:01;;;;;;;20.25;2.92;;;13.20;69.50;;;;;;4131405;28;20042;-89
2022/05/26 05:13:10;;;;;;;21.00;2.60;;;13.20;69.40;;;;;;4129144;28;20158;-87
2022/05/26 05:15:26;;;;;;;15.05;1.85;;;13.30;69.40;;;;;;4126135;28;20046;-86
2022/05/26 05:17:27;;;;;;;20.58;2.95;;;13.20;69.30;;;;;;4112363;28;20046;-86
2022/05/26 05:19:30;;;;;;;20.02;2.03;;;13.30;70.00;;;;;;4109451;28;20402;-87
2022/05/26 05:21:41;;;;;;;21.60;2.90;;;13.30;68.90;;;;;;4142553;28;20041;-87
2022/05/26 05:23:48;;;;;;;17.83;2.20;;;13.30;68.80;;;;;;4131854;28;20038;-87
2022/05/26 05:25:53;;;;;;;18.90;2.53;;;13.40;68.80;;;;;;4138701;28;20061;-87
2022/05/26 05:28:09;;;;;;;19.15;2.60;;;13.30;68.50;;;;;;4151493;28;20025;-86
2022/05/26 05:30:24;;;;;;;17.95;2.45;;;13.30;68.30;;;;;;4136657;28;20030;-91
2022/05/26 05:32:49;;;;;;;22.77;2.70;;;13.40;68.10;;;;;;4135448;28;20038;-87
2022/05/26 05:35:00;;;;;;;18.73;2.78;;;13.40;68.00;;;;;;4140160;28;20042;-86
2022/05/26 05:37:02;;;;;;;12.38;1.67;;;13.40;68.00;;;;;;4150150;28;20461;-87
2022/05/26 05:44:36;;;;;;;18.40;2.08;;;13.40;67.80;;;;;;4122622;28;21050;-87
2022/05/26 05:46:57;;;;;;;19.10;2.00;;;13.40;67.60;;;;;;4121306;28;20022;-88
2022/05/26 05:48:58;;;;;;;22.48;2.60;;;13.40;67.60;;;;;;4109328;28;20023;-86
2022/05/26 05:51:24;;;;;;;18.20;2.25;;;13.50;67.60;;;;;;4129194;28;20081;-87
2022/05/26 05:53:46;;;;;;;11.93;2.25;;;13.50;67.40;;;;;;4079258;28;20043;-90
2022/05/26 05:55:52;;;;;;;16.08;2.10;;;13.60;67.40;;;;;;4132387;28;20066;-87
2022/05/26 05:57:53;;;;;;;20.33;2.58;;;13.60;67.20;;;;;;4115272;28;20114;-89
2022/05/26 05:59:57;;;;;;;15.38;2.33;;;13.50;67.10;;;;;;4099545;28;20575;-86
2022/05/26 06:02:21;;;;;;;14.68;2.38;;;13.60;67.10;;;;;;4112299;28;20114;-89
2022/05/26 06:04:22;;;;;;;16.88;2.63;;;13.50;67.20;;;;;;4076849;29;20032;-86
2022/05/26 06:06:26;;;;;;;14.10;2.22;;;13.70;67.50;;;;;;4081379;29;20039;-86
2022/05/26 06:08:26;;;;;;;;;;;13.60;67.50;;;;;;4081576;29;20452;-87
2022/05/26 06:10:39;;;;;;;22.92;2.85;;;13.70;67.30;;;;;;4078943;29;20372;-87
2022/05/26 06:13:03;;;;;;;16.35;2.15;;;13.70;67.00;;;;;;4081778;29;20035;-84
2022/05/26 06:15:45;;;;;;;11.00;2.00;;;13.70;66.60;;;;;;4065156;29;20036;-86
2022/05/26 06:18:41;;;;;;;14.95;2.30;;;13.70;65.20;;;;;;4082317;29;20043;-84
2022/05/26 06:21:06;;;;;;;22.13;2.47;;;13.70;65.10;;;;;;4066091;29;20182;-88
2022/05/26 06:23:27;;;;;;;14.45;1.92;;;13.80;65.00;;;;;;4083584;29;20036;-88
2022/05/26 06:25:48;;;;;;;19.45;2.03;;;13.70;64.20;;;;;;4075694;29;20035;-84
2022/05/26 06:30:51;;;;;;;18.48;2.58;;;13.70;64.20;;;;;;4081014;29;21275;-86
2022/05/26 06:38:21;;;;;;;21.92;1.98;;;13.80;64.00;;;;;;4083125;29;20035;-87
2022/05/26 06:40:42;;;;;;;16.05;2.10;;;13.90;63.80;;;;;;4083222;28;20080;-86
2022/05/26 06:43:06;;;;;;;14.98;1.70;;;13.90;63.30;;;;;;4116731;28;20065;-86
2022/05/26 06:45:27;;;;;;;10.70;2.10;;;13.90;62.70;;;;;;4111862;28;20513;-88
2022/05/26 06:47:53;;;;;;;13.88;1.90;;;13.90;63.00;;;;;;4129542;28;20045;-86
2022/05/26 06:50:17;;;;;;;17.80;2.13;;;14.00;63.30;;;;;;4144763;28;20034;-88
2022/05/26 06:52:41;;;;;;;;;;;14.10;63.60;;;;;;4140876;28;20073;-87
2022/05/26 06:55:20;;;;;;;22.02;2.55;;;14.20;63.90;;;;;;4131974;28;20278;-87
2022/05/26 06:57:41;;;;;;;14.27;1.88;;;14.30;63.70;;;;;;4111264;28;20031;-86
2022/05/26 06:59:43;;;;;;;14.93;2.13;;;14.40;62.90;;;;;;4113728;28;20462;-88
2022/05/26 07:02:16;;;;;;;13.27;2.05;;;14.40;61.50;;;;;;4095998;28;20035;-86
2022/05/26 07:04:26;;;;;;;14.07;2.30;;;14.30;60.80;;;;;;4109621;28;20532;-87
2022/05/26 07:06:30;;;;;;;15.32;1.90;;;14.30;60.90;;;;;;4121660;28;20405;-86
2022/05/26 07:08:33;;;;;;;11.35;1.95;;;14.40;61.20;;;;;;4112904;28;20058;-88
2022/05/26 07:10:34;;;;;;;15.55;2.05;;;14.40;61.70;;;;;;4111098;28;20038;-87
2022/05/26 07:12:35;;;;;;;10.30;1.90;;;14.40;61.60;;;;;;4113260;28;20034;-86
2022/05/26 07:14:39;;;;;;;15.07;2.03;;;14.40;60.70;;;;;;4108610;28;20477;-87
2022/05/26 07:16:40;;;;;;;;;;;14.50;60.70;;;;;;4120575;28;20027;-87
2022/05/26 07:18:53;;;;;;;11.25;2.03;;;14.50;60.00;;;;;;4129710;28;20549;-86
2022/05/26 07:20:55;;;;;;;11.30;2.10;;;14.50;59.90;;;;;;4097109;28;20034;-89
2022/05/26 07:22:56;;;;;;;10.98;1.85;;;14.50;60.10;;;;;;4096311;28;20040;-88
2022/05/26 07:25:07;;;;;;;21.33;2.05;;;14.60;60.60;;;;;;4090344;28;20086;-86
2022/05/26 07:27:11;;;;;;;11.52;1.55;;;14.70;60.90;;;;;;4129806;28;20026;-87
2022/05/26 07:29:12;;;;;;;;;;;14.70;60.60;;;;;;4129527;28;20022;-86
2022/05/26 07:31:18;;;;;;;11.98;1.75;;;14.70;60.00;;;;;;4123086;28;19914;-89
2022/05/26 07:33:19;;;;;;;16.20;2.17;;;14.70;60.20;;;;;;4110740;28;20038;-87
2022/05/26 07:35:20;;;;;;;10.98;1.92;;;14.70;59.60;;;;;;4122129;28;20081;-87
2022/05/26 07:42:07;;;;;;;12.73;1.70;;;14.80;59.60;;;;;;4124990;28;20035;-87
2022/05/26 07:44:09;;;;;;;17.92;2.50;;;14.80;59.10;;;;;;4109896;28;20661;-87
2022/05/26 07:46:11;;;;;;;10.25;1.75;;;14.90;59.20;;;;;;4095372;28;20053;-86
2022/05/26 07:48:17;;;;;;;13.25;1.60;;;14.90;59.60;;;;;;4111279;28;20058;-87
2022/05/26 07:50:25;;;;;;;16.65;2.28;;;14.90;59.30;;;;;;4096199;28;20154;-88
2022/05/26 07:52:52;;;;;;;16.80;2.15;;;15.00;59.10;;;;;;4114625;28;20043;-86
2022/05/26 07:55:13;;;;;;;6.97;1.83;;;15.10;58.90;;;;;;4125797;28;20046;-86
2022/05/26 07:57:33;;;;;;;19.35;1.85;;;15.20;58.50;;;;;;4121714;28;20034;-86
2022/05/26 07:59:58;;;;;;;11.55;2.20;;;15.10;57.40;;;;;;4119291;28;20023;-88
2022/05/26 08:02:20;;;;;;;11.63;1.80;;;15.10;56.90;;;;;;4123880;28;20126;-87
2022/05/26 08:04:21;;;;;;;13.30;2.15;;;15.00;57.00;;;;;;4124862;28;20038;-89
2022/05/26 08:06:24;;;;;;;12.65;2.63;;;15.00;57.40;;;;;;4097680;28;20078;-86
2022/05/26 08:08:26;;;;;;;21.20;2.65;;;15.00;57.50;;;;;;4110243;28;20125;-88
2022/05/26 08:10:53;;;;;;;14.07;2.15;;;15.00;57.40;;;;;;4116882;23;20043;-90
2022/05/26 08:12:58;;;;;;;12.88;1.90;;;15.00;57.20;;;;;;4125664;28;20034;-89
2022/05/26 08:14:59;;;;;;;20.25;2.30;;;15.10;57.80;;;;;;4126396;28;20046;-89
2022/05/26 08:17:01;;;;;;;26.00;2.60;;;15.10;57.90;;;;;;4112085;28;20026;-89
2022/05/26 08:19:03;;;;;;;11.13;2.10;;;15.10;57.20;;;;;;4094299;28;20031;-91
2022/05/26 08:21:10;;;;;;;8.60;1.85;;;15.10;56.90;;;;;;4090334;28;20027;-89
2022/05/26 08:23:12;;;;;;;15.18;1.80;;;15.10;56.10;;;;;;4093331;28;20027;-89
2022/05/26 08:25:13;;;;;;;11.13;1.60;;;15.10;55.70;;;;;;4096818;28;20131;-89
2022/05/26 08:27:17;;;;;;;16.13;1.55;;;15.10;55.60;;;;;;4095026;28;20023;-92
2022/05/26 08:29:18;;;;;;;14.25;1.58;;;15.10;55.50;;;;;;4088693;28;20497;-90
2022/05/26 08:31:19;;;;;;;15.55;2.58;;;15.10;55.80;;;;;;4094725;29;20066;-91
2022/05/26 08:33:21;;;;;;;12.43;1.88;;;15.20;56.20;;;;;;4110329;28;20182;-89
2022/05/26 08:35:36;;;;;;;8.10;1.45;;;15.20;56.20;;;;;;4092874;29;20119;-91
2022/05/26 08:37:57;;;;;;;10.25;1.70;;;15.20;56.00;;;;;;4091245;28;20023;-89
2022/05/26 08:39:59;;;;;;;15.52;2.08;;;15.30;55.30;;;;;;4093482;28;20038;-89
2022/05/26 08:42:00;;;;;;;7.95;1.23;;;15.30;55.10;;;;;;4094279;28;20027;-91
2022/05/26 08:44:13;;;;;;;11.50;1.30;;;15.30;54.20;;;;;;4093974;28;20839;-90
2022/05/26 08:46:17;;;;;;;10.73;1.33;;;15.30;54.00;;;;;;4094287;28;20035;-89
2022/05/26 08:48:41;;;;;;;12.15;1.77;;;15.30;54.20;;;;;;4091777;28;20031;-88
2022/05/26 08:50:50;;;;;;;7.60;1.33;;;15.40;53.50;;;;;;4093643;28;20521;-89
2022/05/26 08:53:09;;;;;;;15.80;2.03;;;15.50;53.30;;;;;;4109322;28;20054;-91
2022/05/26 08:55:40;;;;;;;8.63;1.60;;;15.50;53.00;;;;;;4104659;28;20035;-90
2022/05/26 08:58:22;;;;;;;6.70;1.52;;;15.50;52.50;;;;;;4093820;28;20114;-90
2022/05/26 09:00:48;;;;;;;6.35;1.10;;;15.50;53.00;;;;;;4095142;28;20579;-89
2022/05/26 09:03:24;;;;;;;8.25;1.15;;;15.60;53.10;;;;;;4094745;29;20054;-89
2022/05/26 09:05:37;;;;;;;13.52;1.98;;;15.60;52.40;;;;;;4097436;28;20106;-89
2022/05/26 09:14:45;;;;;;;9.90;1.67;;;15.70;52.60;;;;;;4106927;28;20118;-88
2022/05/26 09:16:46;;;;;;;9.38;1.67;;;15.80;52.70;;;;;;4102002;28;20035;-91
2022/05/26 09:19:08;;;;;;;10.13;1.73;;;15.80;52.10;;;;;;4095706;28;20472;-91
2022/05/26 09:21:31;;;;;;;6.07;1.17;;;15.80;51.50;;;;;;4068882;29;20123;-91
2022/05/26 09:23:34;;;;;;;9.88;1.58;;;15.80;51.80;;;;;;4107511;28;20033;-89
2022/05/26 09:26:01;;;;;;;10.35;1.73;;;15.80;51.50;;;;;;4098701;28;20038;-89
2022/05/26 09:28:10;;;;;;;11.80;1.27;;;15.70;51.60;;;;;;4091736;28;20510;-89
2022/05/26 09:30:21;;;;;;;6.03;0.85;;;15.80;52.40;;;;;;4090174;28;20043;-88
2022/05/26 09:32:41;;;;;;;8.68;1.42;;;15.80;53.20;;;;;;4105674;28;20105;-89
2022/05/26 09:35:27;;;;;;;6.97;1.48;;;15.80;53.60;;;;;;4097216;28;20047;-93
2022/05/26 09:37:43;;;;;;;8.30;1.13;;;15.90;53.40;;;;;;4059443;29;20036;-90
2022/05/26 09:40:27;;;;;;;5.28;1.02;;;16.00;53.30;;;;;;4046503;29;20124;-89
2022/05/26 09:42:29;;;;;;;7.20;1.02;;;16.00;51.80;;;;;;4039628;29;20911;-87
2022/05/26 09:44:57;;;;;;;7.88;1.35;;;16.10;51.40;;;;;;4046724;29;20595;-89
2022/05/26 09:47:39;;;;;;;11.20;1.45;;;16.10;51.20;;;;;;4039197;29;20575;-90
2022/05/26 09:50:03;;;;;;;6.82;1.20;;;16.10;50.10;;;;;;4048527;29;20041;-90
2022/05/26 09:52:28;;;;;;;12.70;1.40;;;16.10;50.60;;;;;;4047690;29;20036;-89
2022/05/26 09:54:39;;;;;;;5.35;1.85;;;16.10;50.90;;;;;;4044871;29;20052;-89
2022/05/26 09:57:17;;;;;;;6.25;1.10;;;16.10;50.40;;;;;;4061890;29;20032;-88
2022/05/26 09:59:42;;;;;;;9.35;1.23;;;16.00;51.10;;;;;;4049850;29;20495;-91
2022/05/26 10:02:06;;;;;;;11.77;1.40;;;16.00;51.80;;;;;;4062532;29;20028;-90
2022/05/26 10:04:57;;;;;;;6.13;1.20;;;16.00;52.10;;;;;;4046678;29;20033;-89
2022/05/26 10:07:24;;;;;;;9.75;1.55;;;16.00;49.80;;;;;;4064581;29;20033;-89
2022/05/26 10:09:53;;;;;;;6.45;0.90;;;16.00;49.90;;;;;;4063839;29;20036;-90
2022/05/26 10:12:35;;;;;;;2.72;0.73;;;16.00;49.40;;;;;;4057906;29;20172;-91
2022/05/26 10:15:06;;;;;;;17.10;1.23;;;16.00;49.00;;;;;;4067262;29;20044;-88
2022/05/26 10:17:19;;;;;;;11.02;1.10;;;15.90;49.10;;;;;;4094600;29;20035;-94
2022/05/26 10:19:56;;;;;;;9.25;1.30;;;15.80;49.00;;;;;;4111262;28;20097;-89
2022/05/26 10:22:22;;;;;;;10.38;1.08;;;15.80;49.10;;;;;;4125715;28;20106;-91
2022/05/26 10:24:57;;;;;;;10.30;1.40;;;15.80;49.10;;;;;;4125411;28;20037;-88
2022/05/26 10:27:19;;;;;;;8.32;1.42;;;15.70;48.20;;;;;;4114448;28;20061;-89
2022/05/26 10:29:20;;;;;;;8.82;1.30;;;15.70;49.30;;;;;;4118641;28;20041;-87
2022/05/26 10:31:58;;;;;;;9.40;1.20;;;15.60;49.50;;;;;;4078575;28;20039;-89
2022/05/26 10:34:09;;;;;;;12.95;1.42;;;15.60;49.70;;;;;;4107576;28;20649;-90
2022/05/26 10:36:30;;;;;;;5.45;1.23;;;15.60;50.10;;;;;;4092527;28;20672;-88
2022/05/26 10:39:04;;;;;;;8.13;1.30;;;15.60;49.90;;;;;;4095595;29;20038;-88
2022/05/26 10:41:08;;;;;;;6.20;0.82;;;15.60;48.80;;;;;;4092650;28;20034;-89
2022/05/26 10:43:18;;;;;;;4.53;0.80;;;15.60;48.80;;;;;;4107902;28;20031;-90
2022/05/26 10:45:37;;;;;;;9.30;0.98;;;15.60;48.80;;;;;;4090325;28;20413;-88
2022/05/26 10:47:56;;;;;;;6.20;1.30;;;15.70;48.90;;;;;;4101622;28;20947;-90
2022/05/26 10:50:11;;;;;;;5.30;1.02;;;15.70;48.20;;;;;;4090071;28;20029;-88
2022/05/26 10:52:21;;;;;;;7.90;1.35;;;15.70;47.90;;;;;;4108692;28;20375;-88
2022/05/26 10:54:46;;;;;;;7.00;1.48;;;15.80;48.70;;;;;;4095612;28;20389;-90
2022/05/26 10:57:10;;;;;;;5.30;1.02;;;15.70;48.00;;;;;;4084054;28;21326;-91
2022/05/26 10:59:21;;;;;;;6.97;0.90;;;15.60;47.20;;;;;;4090737;28;20027;-89
2022/05/26 11:01:28;;;;;;;8.32;1.10;;;15.60;47.60;;;;;;4096837;28;20027;-88
2022/05/26 11:03:40;;;;;;;5.25;0.82;;;15.60;47.20;;;;;;4091521;28;20134;-91
2022/05/26 11:05:50;;;;;;;6.95;1.13;;;15.60;47.30;;;;;;4109201;28;20031;-89
2022/05/26 11:07:56;;;;;;;8.38;0.98;;;15.60;47.30;;;;;;4089156;28;20027;-89
2022/05/26 11:10:07;;;;;;;8.70;1.20;;;15.70;47.00;;;;;;4108279;28;20109;-86
2022/05/26 11:12:23;;;;;;;4.43;0.75;;;15.60;47.40;;;;;;4092712;28;20035;-89
2022/05/26 11:17:23;;;;;;;12.07;1.33;;;15.70;48.40;;;;;;4092646;28;20114;-90
2022/05/26 11:20:01;;;;;;;11.00;1.20;;;15.80;49.00;;;;;;4092411;28;20489;-90
2022/05/26 11:22:03;;;;;;;15.85;1.25;;;15.80;49.00;;;;;;4089489;28;20086;-90
2022/05/26 11:24:11;;;;;;;7.65;1.30;;;15.90;47.80;;;;;;4092477;28;20032;-91
2022/05/26 11:26:23;;;;;;;8.18;1.10;;;15.90;47.80;;;;;;4093219;29;20058;-91
2022/05/26 11:28:40;;;;;;;15.90;1.50;;;16.00;47.70;;;;;;4086272;29;20037;-90
2022/05/26 11:38:33;;;;;;;6.35;0.95;;;15.90;47.30;;;;;;4094471;28;20107;-89
2022/05/26 11:41:02;;;;;;;8.50;1.08;;;15.90;47.80;;;;;;4092142;28;20046;-89
2022/05/26 11:43:07;;;;;;;6.95;1.20;;;15.80;48.50;;;;;;4090442;29;20351;-89
2022/05/26 11:45:13;;;;;;;9.38;1.10;;;15.80;48.80;;;;;;4093576;29;20047;-91
2022/05/26 11:47:26;;;;;;;6.93;1.00;;;15.70;48.60;;;;;;4079552;29;20070;-92
2022/05/26 11:49:45;;;;;;;8.50;1.10;;;15.80;48.80;;;;;;4078730;29;20036;-89
2022/05/26 11:51:46;;;;;;;8.60;0.85;;;15.70;49.40;;;;;;4077106;29;20076;-91
2022/05/26 11:53:48;;;;;;;8.63;1.10;;;15.80;49.10;;;;;;4078387;29;20034;-88
2022/05/26 11:56:03;;;;;;;7.95;1.15;;;15.80;48.50;;;;;;4091613;29;20039;-89
2022/05/26 11:58:38;;;;;;;6.22;0.82;;;15.80;48.70;;;;;;4076913;29;20032;-91
2022/05/26 12:00:43;;;;;;;6.05;1.13;;;15.80;49.50;;;;;;4060212;29;20167;-94
2022/05/26 12:02:51;;;;;;;7.78;1.00;;;15.80;48.70;;;;;;4076230;29;20376;-90
2022/05/26 12:05:29;;;;;;;5.50;1.05;;;15.80;48.00;;;;;;4079798;29;20032;-90
2022/05/26 12:07:39;;;;;;;7.57;1.10;;;15.90;47.60;;;;;;4058882;29;20032;-89